Time;durP1;ratioP1;P1;durP2;ratioP2;P2;SDS_P1;SDS_P2;PMS_P1;PMS_P2;Temp;Humidity;BMP_temperature;BMP_pressure;BME280_temperature;BME280_humidity;BME280_pressure;Samples;Min_cycle;Max_cycle;Signal;HPM_P1;HPM_P2
2022/08/10 00:00:19;;;;;;;6.30;3.75;;;17.40;99.90;;;;;;5107076;28;20051;-59
2022/08/10 00:02:46;;;;;;;5.47;3.38;;;17.50;99.90;;;;;;5107900;28;20047;-59
2022/08/10 00:05:12;;;;;;;3.95;3.20;;;17.40;99.90;;;;;;5107153;28;20115;-60
2022/08/10 00:07:37;;;;;;;5.05;3.60;;;17.40;99.90;;;;;;5095270;28;20734;-59
2022/08/10 00:10:06;;;;;;;5.78;3.53;;;17.30;99.90;;;;;;5107728;28;20517;-59
2022/08/10 00:12:31;;;;;;;4.82;3.70;;;17.30;99.90;;;;;;5108214;28;20054;-60
2022/08/10 00:14:58;;;;;;;6.80;3.85;;;17.40;99.90;;;;;;5107518;28;20051;-60
2022/08/10 00:17:25;;;;;;;5.07;3.53;;;17.30;99.90;;;;;;5107442;28;20089;-59
2022/08/10 00:19:50;;;;;;;6.85;3.22;;;17.20;99.90;;;;;;5106884;27;20062;-59
2022/08/10 00:22:16;;;;;;;6.22;3.80;;;17.10;99.90;;;;;;5106605;28;20651;-60
2022/08/10 00:24:42;;;;;;;4.85;3.70;;;17.10;99.90;;;;;;5107410;28;20044;-61
2022/08/10 00:27:07;;;;;;;5.93;4.05;;;17.10;99.90;;;;;;5107624;28;20054;-60
2022/08/10 00:29:33;;;;;;;4.43;3.72;;;17.00;99.90;;;;;;5107921;28;20063;-59
2022/08/10 00:31:59;;;;;;;4.72;3.72;;;17.00;99.90;;;;;;5105922;28;20066;-60
2022/08/10 00:34:29;;;;;;;6.20;4.00;;;17.00;99.90;;;;;;5107290;28;20043;-59
2022/08/10 00:36:55;;;;;;;6.15;4.38;;;17.00;99.90;;;;;;5106604;28;20051;-59
2022/08/10 00:39:21;;;;;;;5.45;4.22;;;17.10;99.90;;;;;;5107037;28;20048;-59
2022/08/10 00:41:46;;;;;;;6.82;4.63;;;17.00;99.90;;;;;;5107266;28;20044;-60
2022/08/10 00:44:12;;;;;;;5.65;4.10;;;17.00;99.90;;;;;;5106446;28;20150;-60
2022/08/10 00:46:38;;;;;;;7.30;4.70;;;17.00;99.90;;;;;;5106921;28;20458;-59
2022/08/10 00:49:04;;;;;;;7.25;4.32;;;17.00;99.90;;;;;;5107635;28;20044;-60
2022/08/10 00:51:29;;;;;;;6.60;5.30;;;17.10;99.90;;;;;;5105617;28;20051;-60
2022/08/10 00:53:55;;;;;;;8.55;6.25;;;17.00;99.90;;;;;;5106827;27;20131;-58
2022/08/10 00:56:21;;;;;;;7.18;5.53;;;17.00;99.90;;;;;;5106660;28;20105;-59
2022/08/10 00:58:47;;;;;;;7.68;5.72;;;17.10;99.90;;;;;;5105702;28;20125;-60
2022/08/10 01:01:13;;;;;;;8.48;6.00;;;17.00;99.90;;;;;;5106559;28;20077;-59
2022/08/10 01:03:38;;;;;;;8.68;6.25;;;17.10;99.90;;;;;;5106859;28;20047;-59
2022/08/10 01:06:28;;;;;;;7.90;5.90;;;16.90;99.90;;;;;;5094538;27;20101;-60
2022/08/10 01:08:57;;;;;;;8.32;5.78;;;17.00;99.90;;;;;;5078589;28;20067;-60
2022/08/10 01:11:52;;;;;;;8.05;6.15;;;16.90;99.90;;;;;;5086093;28;20101;-60
2022/08/10 01:14:35;;;;;;;8.47;6.63;;;16.90;99.90;;;;;;5082096;28;20402;-60
2022/08/10 01:17:18;;;;;;;7.40;6.55;;;16.90;99.90;;;;;;5085957;28;20282;-60
2022/08/10 01:19:54;;;;;;;9.55;6.63;;;16.90;99.90;;;;;;5085267;28;20055;-59
2022/08/10 01:22:54;;;;;;;8.55;6.75;;;17.00;99.90;;;;;;5085790;28;20048;-60
2022/08/10 01:25:29;;;;;;;7.95;6.47;;;16.90;99.90;;;;;;5090234;28;20052;-60
2022/08/10 01:28:14;;;;;;;8.73;7.03;;;16.90;99.90;;;;;;5084409;28;20044;-60
2022/08/10 01:30:41;;;;;;;8.23;6.28;;;16.90;99.90;;;;;;5086126;28;20079;-60
2022/08/10 01:33:35;;;;;;;10.65;7.00;;;16.80;99.90;;;;;;5085955;28;20376;-60
2022/08/10 01:36:07;;;;;;;9.00;7.15;;;16.80;99.90;;;;;;5085205;28;20035;-60
2022/08/10 01:38:55;;;;;;;11.50;7.75;;;16.80;99.90;;;;;;5085971;28;20050;-60
2022/08/10 01:41:29;;;;;;;8.68;7.30;;;16.80;99.90;;;;;;5085185;28;20060;-60
2022/08/10 01:44:02;;;;;;;8.60;7.60;;;16.80;99.90;;;;;;5085833;28;20035;-59
2022/08/10 01:46:29;;;;;;;10.85;7.35;;;16.80;99.90;;;;;;5085201;28;20091;-60
2022/08/10 01:48:57;;;;;;;10.98;7.85;;;16.80;99.90;;;;;;5085263;28;20081;-60
2022/08/10 01:51:23;;;;;;;9.20;7.22;;;16.90;99.90;;;;;;5084537;28;20075;-60
2022/08/10 01:54:01;;;;;;;8.88;7.50;;;16.80;99.90;;;;;;5085592;28;20125;-60
2022/08/10 01:56:35;;;;;;;9.65;6.95;;;16.90;99.90;;;;;;5084972;28;20118;-61
2022/08/10 01:59:08;;;;;;;8.77;7.25;;;16.80;99.90;;;;;;5083996;28;20054;-60
2022/08/10 02:01:40;;;;;;;9.07;6.68;;;16.90;99.90;;;;;;5085591;28;20051;-60
2022/08/10 02:04:09;;;;;;;8.55;7.15;;;16.80;99.90;;;;;;5084882;28;20040;-60
2022/08/10 02:06:43;;;;;;;8.43;6.93;;;16.80;99.90;;;;;;5078335;28;20045;-60
2022/08/10 02:09:13;;;;;;;9.05;7.25;;;16.80;99.90;;;;;;5070267;28;20048;-60
2022/08/10 02:11:39;;;;;;;8.68;6.75;;;16.80;99.90;;;;;;5063418;28;20086;-60
2022/08/10 02:14:06;;;;;;;8.68;6.38;;;16.80;99.90;;;;;;5064552;28;20079;-60
2022/08/10 02:16:32;;;;;;;9.60;7.10;;;16.80;99.90;;;;;;5072936;28;20098;-60
2022/08/10 02:19:01;;;;;;;10.60;7.40;;;16.70;99.90;;;;;;5085069;28;20105;-60
2022/08/10 02:21:29;;;;;;;8.80;6.88;;;16.60;99.90;;;;;;5084095;28;20087;-60
2022/08/10 02:23:58;;;;;;;9.38;7.47;;;16.60;99.90;;;;;;5084489;28;20775;-60
2022/08/10 02:26:25;;;;;;;9.48;7.15;;;16.60;99.90;;;;;;5084696;28;20135;-60
2022/08/10 02:28:52;;;;;;;9.40;7.20;;;16.70;99.90;;;;;;5084689;28;20479;-60
2022/08/10 02:31:23;;;;;;;9.45;7.60;;;16.70;99.90;;;;;;5084620;28;20048;-59
2022/08/10 02:33:51;;;;;;;10.65;7.70;;;16.70;99.90;;;;;;5084239;28;20054;-60
2022/08/10 02:36:18;;;;;;;12.90;8.55;;;16.70;99.90;;;;;;5083981;28;20056;-57
2022/08/10 02:38:52;;;;;;;12.93;7.85;;;16.60;99.90;;;;;;5084595;28;20436;-61
2022/08/10 02:41:40;;;;;;;10.57;8.35;;;16.60;99.90;;;;;;5084265;28;20040;-60
2022/08/10 02:44:18;;;;;;;12.15;8.88;;;16.50;99.90;;;;;;5083829;28;20429;-61
2022/08/10 02:46:49;;;;;;;12.18;8.57;;;16.50;99.90;;;;;;5084356;28;20040;-60
2022/08/10 02:49:21;;;;;;;11.07;8.75;;;16.50;99.90;;;;;;5083947;28;20044;-60
2022/08/10 02:51:58;;;;;;;11.57;8.85;;;16.50;99.90;;;;;;5083610;28;20131;-60
2022/08/10 02:54:29;;;;;;;11.82;8.63;;;16.40;99.90;;;;;;5084381;28;20039;-61
2022/08/10 02:57:05;;;;;;;12.73;9.23;;;16.40;99.90;;;;;;5082878;28;20460;-61
2022/08/10 02:59:37;;;;;;;11.27;8.68;;;16.40;99.90;;;;;;5084039;28;20050;-60
2022/08/10 03:02:05;;;;;;;11.73;8.90;;;16.50;99.90;;;;;;5084709;28;20052;-59
2022/08/10 03:04:36;;;;;;;12.63;10.10;;;16.50;99.90;;;;;;5083125;28;20089;-61
2022/08/10 03:07:06;;;;;;;11.68;9.57;;;16.50;99.90;;;;;;5078259;28;20091;-60
2022/08/10 03:09:35;;;;;;;10.43;8.65;;;16.50;99.90;;;;;;5066269;28;20044;-60
2022/08/10 03:12:04;;;;;;;13.27;9.93;;;16.50;99.90;;;;;;5063913;28;20098;-61
2022/08/10 03:14:31;;;;;;;14.35;9.63;;;16.40;99.90;;;;;;5063458;28;20040;-59
2022/08/10 03:17:00;;;;;;;12.32;9.85;;;16.40;99.90;;;;;;5064427;28;20052;-60
2022/08/10 03:19:28;;;;;;;13.63;9.73;;;16.40;99.90;;;;;;5063088;28;20053;-59
2022/08/10 03:21:56;;;;;;;11.85;9.38;;;16.40;99.90;;;;;;5063977;28;20032;-60
2022/08/10 03:24:24;;;;;;;12.57;9.27;;;16.30;99.90;;;;;;5063203;28;20781;-61
2022/08/10 03:26:51;;;;;;;13.57;9.70;;;16.30;99.90;;;;;;5063857;28;20033;-61
2022/08/10 03:29:19;;;;;;;12.35;9.52;;;16.40;99.90;;;;;;5063457;28;20519;-59
2022/08/10 03:31:46;;;;;;;14.10;9.65;;;16.40;99.90;;;;;;5063961;28;20047;-60
2022/08/10 03:34:14;;;;;;;13.02;9.52;;;16.40;99.90;;;;;;5063130;28;20515;-60
2022/08/10 03:36:40;;;;;;;13.07;9.10;;;16.40;99.90;;;;;;5063199;28;20056;-60
2022/08/10 03:39:06;;;;;;;10.65;8.45;;;16.40;99.90;;;;;;5064069;28;20129;-60
2022/08/10 03:41:47;;;;;;;12.10;9.35;;;16.40;99.90;;;;;;5063780;28;20044;-60
2022/08/10 03:44:24;;;;;;;12.52;7.88;;;16.40;99.90;;;;;;5063600;28;20045;-60
2022/08/10 03:46:52;;;;;;;11.13;9.23;;;16.30;99.90;;;;;;5079055;28;20119;-60
2022/08/10 03:49:19;;;;;;;13.48;9.10;;;16.30;99.90;;;;;;5063341;28;20041;-60
2022/08/10 03:51:48;;;;;;;12.50;8.48;;;16.30;99.90;;;;;;5063088;28;20045;-60
2022/08/10 03:54:17;;;;;;;13.85;9.60;;;16.30;99.90;;;;;;5063900;28;20482;-60
2022/08/10 03:56:44;;;;;;;11.30;8.52;;;16.30;99.90;;;;;;5063798;28;20044;-59
2022/08/10 03:59:14;;;;;;;11.68;8.88;;;16.20;99.90;;;;;;5063529;28;20051;-60
2022/08/10 04:01:44;;;;;;;12.23;8.77;;;16.10;99.90;;;;;;5063199;28;20037;-60
2022/08/10 04:04:11;;;;;;;12.10;9.35;;;16.20;99.90;;;;;;5063495;28;20120;-60
2022/08/10 04:06:37;;;;;;;9.82;8.63;;;16.20;99.90;;;;;;5067231;28;20544;-60
2022/08/10 04:09:03;;;;;;;11.32;8.40;;;16.10;99.90;;;;;;5085131;28;20064;-60
2022/08/10 04:11:29;;;;;;;11.55;9.15;;;16.10;99.90;;;;;;5062540;28;20053;-60
2022/08/10 04:13:54;;;;;;;10.32;8.45;;;16.10;99.90;;;;;;5079212;28;20045;-60
2022/08/10 04:16:20;;;;;;;10.23;8.52;;;16.20;99.90;;;;;;5063373;28;20036;-59
2022/08/10 04:18:46;;;;;;;9.38;8.10;;;16.20;99.90;;;;;;5063075;28;20137;-60
2022/08/10 04:21:17;;;;;;;12.13;8.93;;;16.30;99.90;;;;;;5062496;28;20076;-60
2022/08/10 04:23:46;;;;;;;10.48;8.23;;;16.30;99.90;;;;;;5063122;28;20407;-60
2022/08/10 04:26:13;;;;;;;11.40;8.50;;;16.20;99.90;;;;;;5063436;28;20048;-60
2022/08/10 04:28:39;;;;;;;10.63;8.40;;;16.20;99.90;;;;;;5066650;28;20036;-60
2022/08/10 04:31:07;;;;;;;13.20;8.73;;;16.20;99.90;;;;;;5067577;28;20411;-61
2022/08/10 04:33:36;;;;;;;10.02;8.57;;;16.20;99.90;;;;;;5066705;28;20041;-60
2022/08/10 04:36:04;;;;;;;9.93;8.32;;;16.20;99.90;;;;;;5066410;28;20055;-61
2022/08/10 04:38:32;;;;;;;11.43;8.73;;;16.20;99.90;;;;;;5066632;28;20698;-60
2022/08/10 04:40:58;;;;;;;12.57;8.90;;;16.30;99.90;;;;;;5066607;28;20090;-60
2022/08/10 04:43:24;;;;;;;10.65;7.80;;;16.30;99.90;;;;;;5065891;28;20059;-61
2022/08/10 04:45:50;;;;;;;11.40;8.75;;;16.40;99.90;;;;;;5066274;28;20153;-60
2022/08/10 04:48:16;;;;;;;10.88;8.68;;;16.30;99.90;;;;;;5066333;28;20155;-59
2022/08/10 04:50:41;;;;;;;11.60;7.97;;;16.30;99.90;;;;;;5065892;28;20041;-60
2022/08/10 04:53:07;;;;;;;10.15;8.55;;;16.40;99.90;;;;;;5066121;28;20047;-60
2022/08/10 04:55:33;;;;;;;11.45;8.82;;;16.30;99.90;;;;;;5066731;28;20036;-60
2022/08/10 04:57:58;;;;;;;9.52;7.70;;;16.40;99.90;;;;;;5066538;28;20042;-60
2022/08/10 05:00:24;;;;;;;13.55;8.40;;;16.60;99.90;;;;;;5065972;28;20099;-60
2022/08/10 05:02:50;;;;;;;10.90;7.25;;;17.10;99.90;;;;;;5066462;28;20515;-60
2022/08/10 05:05:16;;;;;;;9.35;7.07;;;17.60;99.90;;;;;;5064977;28;20067;-57
2022/08/10 05:07:42;;;;;;;9.15;7.28;;;18.10;99.90;;;;;;5077844;28;20481;-60
2022/08/10 05:10:08;;;;;;;8.10;6.50;;;18.40;99.90;;;;;;5065987;28;20052;-59
2022/08/10 05:12:37;;;;;;;8.18;6.03;;;18.90;99.90;;;;;;5082080;28;20048;-60
2022/08/10 05:15:08;;;;;;;8.45;6.20;;;19.20;99.90;;;;;;5066127;28;20040;-60
2022/08/10 05:17:34;;;;;;;10.45;5.80;;;19.40;99.90;;;;;;5066122;28;20047;-59
2022/08/10 05:20:01;;;;;;;7.85;5.55;;;19.60;99.90;;;;;;5064831;28;20096;-58
2022/08/10 05:22:27;;;;;;;6.90;5.40;;;19.80;99.90;;;;;;5066078;28;20426;-59
2022/08/10 05:24:52;;;;;;;6.30;4.43;;;20.10;99.90;;;;;;5066103;28;20055;-60
2022/08/10 05:27:18;;;;;;;7.53;5.15;;;20.40;99.90;;;;;;5065076;28;20770;-59
2022/08/10 05:29:43;;;;;;;7.05;4.35;;;20.70;99.90;;;;;;5065557;28;20138;-59
2022/08/10 05:32:09;;;;;;;7.28;4.38;;;20.60;99.90;;;;;;5065360;28;20048;-59
2022/08/10 05:34:35;;;;;;;6.28;3.97;;;20.70;99.90;;;;;;5065151;28;20706;-59
2022/08/10 05:37:02;;;;;;;6.13;4.60;;;20.90;99.90;;;;;;5065276;28;20033;-59
2022/08/10 05:39:28;;;;;;;8.85;4.10;;;21.10;99.90;;;;;;5065458;28;20056;-58
2022/08/10 05:41:54;;;;;;;5.40;3.90;;;21.30;99.90;;;;;;5080846;28;20139;-59
2022/08/10 05:44:21;;;;;;;6.43;3.85;;;21.30;99.90;;;;;;5080611;28;20131;-59
2022/08/10 05:46:48;;;;;;;6.00;3.72;;;21.30;99.90;;;;;;5065132;28;20049;-59
2022/08/10 05:49:14;;;;;;;5.47;4.22;;;21.30;99.90;;;;;;5063916;28;20055;-60
2022/08/10 05:51:39;;;;;;;5.13;3.58;;;21.50;99.90;;;;;;5065175;28;20406;-59
2022/08/10 05:54:13;;;;;;;5.35;3.53;;;21.60;99.90;;;;;;5065406;28;20057;-59
2022/08/10 05:56:41;;;;;;;5.57;3.55;;;21.70;99.90;;;;;;5065107;28;20040;-59
2022/08/10 05:59:09;;;;;;;4.32;3.08;;;21.70;99.90;;;;;;5064264;28;20044;-58
2022/08/10 06:01:40;;;;;;;4.20;3.10;;;21.80;99.90;;;;;;5065434;28;20041;-60
2022/08/10 06:04:07;;;;;;;4.38;2.90;;;22.10;99.90;;;;;;5064936;28;20044;-59
2022/08/10 06:06:35;;;;;;;5.28;2.67;;;22.20;99.90;;;;;;5069778;28;20051;-59
2022/08/10 06:09:01;;;;;;;7.25;2.70;;;22.40;99.90;;;;;;5070990;28;20127;-59
2022/08/10 06:11:29;;;;;;;3.63;2.42;;;22.30;99.90;;;;;;5064312;28;20047;-60
2022/08/10 06:16:42;;;;;;;4.28;3.15;;;22.10;99.90;;;;;;5064398;28;20054;-60
2022/08/10 06:19:10;;;;;;;4.75;3.03;;;22.00;99.90;;;;;;5079491;28;20052;-60
2022/08/10 06:21:37;;;;;;;4.95;2.85;;;22.20;99.90;;;;;;5063596;28;20048;-60
2022/08/10 06:24:05;;;;;;;4.53;2.80;;;22.30;99.90;;;;;;5065015;28;20395;-60
2022/08/10 06:26:31;;;;;;;6.63;3.10;;;22.40;99.90;;;;;;5064397;28;20040;-61
2022/08/10 06:29:05;;;;;;;5.32;2.88;;;22.30;99.90;;;;;;5064865;28;20044;-59
2022/08/10 06:31:43;;;;;;;4.75;2.60;;;22.30;99.90;;;;;;5064349;28;20052;-59
2022/08/10 06:34:11;;;;;;;4.72;2.65;;;22.40;99.90;;;;;;5063192;28;20082;-59
2022/08/10 06:36:40;;;;;;;4.22;2.88;;;22.60;99.90;;;;;;5064174;28;20052;-58
2022/08/10 06:39:06;;;;;;;6.93;2.50;;;22.60;99.90;;;;;;5064717;28;20084;-58
2022/08/10 06:41:37;;;;;;;5.43;2.53;;;23.00;99.90;;;;;;5064515;28;20032;-58
2022/08/10 06:44:08;;;;;;;3.15;2.03;;;23.00;99.90;;;;;;5064057;28;20040;-59
2022/08/10 06:46:38;;;;;;;5.03;2.80;;;23.00;99.90;;;;;;5064620;28;20114;-58
2022/08/10 06:49:06;;;;;;;5.65;2.63;;;23.10;99.90;;;;;;5063188;28;20441;-56
2022/08/10 06:51:38;;;;;;;2.92;1.92;;;23.10;99.90;;;;;;5064602;28;20127;-58
2022/08/10 06:54:07;;;;;;;3.92;2.00;;;23.20;99.90;;;;;;5064438;28;20054;-61
2022/08/10 06:56:44;;;;;;;3.35;2.33;;;23.30;99.90;;;;;;5080099;28;20525;-59
2022/08/10 06:59:12;;;;;;;4.55;2.20;;;23.20;99.90;;;;;;5063856;28;20140;-58
2022/08/10 07:01:40;;;;;;;4.32;2.10;;;23.30;99.90;;;;;;5063386;28;20044;-58
2022/08/10 07:04:12;;;;;;;4.40;2.25;;;23.40;99.90;;;;;;5063765;28;20124;-59
2022/08/10 07:06:45;;;;;;;6.25;1.98;;;23.60;99.90;;;;;;5069314;28;20063;-59
2022/08/10 07:09:13;;;;;;;5.43;2.20;;;23.80;99.90;;;;;;5068256;28;20091;-58
2022/08/10 07:11:42;;;;;;;6.10;2.50;;;23.70;99.90;;;;;;5063761;28;20036;-59
2022/08/10 07:14:10;;;;;;;4.68;1.98;;;23.70;99.90;;;;;;5063411;28;20123;-59
2022/08/10 07:16:39;;;;;;;6.68;2.28;;;23.90;99.90;;;;;;5064292;28;20045;-60
2022/08/10 07:19:07;;;;;;;4.50;2.13;;;23.70;99.90;;;;;;5062910;28;20106;-61
2022/08/10 07:21:33;;;;;;;2.78;1.80;;;24.10;99.90;;;;;;5064208;28;20120;-60
2022/08/10 07:24:01;;;;;;;4.75;1.90;;;24.10;99.90;;;;;;5064133;28;20458;-61
2022/08/10 07:26:29;;;;;;;4.50;1.77;;;24.00;99.90;;;;;;5063753;28;20052;-61
2022/08/10 07:28:56;;;;;;;4.68;1.90;;;24.30;99.90;;;;;;5063364;28;20141;-61
2022/08/10 07:31:23;;;;;;;4.47;1.92;;;24.30;99.90;;;;;;5063448;28;20380;-61
2022/08/10 07:33:52;;;;;;;4.22;1.90;;;24.50;99.90;;;;;;5062978;28;20451;-61
2022/08/10 07:36:20;;;;;;;3.45;2.08;;;24.50;99.90;;;;;;5063437;28;20036;-60
2022/08/10 07:38:48;;;;;;;4.82;2.22;;;24.60;99.90;;;;;;5063702;28;20123;-59
2022/08/10 07:41:16;;;;;;;3.83;1.85;;;24.60;99.90;;;;;;5063302;28;20048;-59
2022/08/10 07:43:44;;;;;;;3.72;2.00;;;24.70;99.90;;;;;;5064140;28;20048;-60
2022/08/10 07:46:13;;;;;;;6.43;2.25;;;25.00;99.90;;;;;;5063520;28;20032;-61
2022/08/10 07:48:47;;;;;;;5.13;1.90;;;24.70;99.90;;;;;;5063883;28;20091;-60
2022/08/10 07:51:16;;;;;;;3.38;2.00;;;24.80;99.90;;;;;;5083870;28;20040;-58
2022/08/10 07:53:46;;;;;;;4.40;1.88;;;24.80;99.90;;;;;;5083704;28;20058;-59
2022/08/10 07:56:14;;;;;;;6.95;2.22;;;24.70;99.90;;;;;;5083337;28;20044;-59
2022/08/10 07:58:49;;;;;;;5.45;2.00;;;24.80;99.90;;;;;;5082725;28;20177;-58
2022/08/10 08:01:16;;;;;;;4.68;2.33;;;24.90;99.90;;;;;;5082065;28;20498;-57
2022/08/10 08:03:44;;;;;;;4.28;1.92;;;25.00;99.90;;;;;;5086108;28;20040;-58
2022/08/10 08:06:12;;;;;;;3.08;1.80;;;25.20;99.90;;;;;;5082167;28;20041;-57
2022/08/10 08:08:41;;;;;;;3.50;2.03;;;25.10;99.90;;;;;;5075596;28;20102;-58
2022/08/10 08:11:07;;;;;;;6.05;1.88;;;25.20;99.90;;;;;;5067339;28;20040;-58
2022/08/10 08:13:34;;;;;;;4.70;1.70;;;25.20;99.90;;;;;;5067272;28;20099;-57
2022/08/10 08:16:03;;;;;;;4.60;1.73;;;25.50;99.90;;;;;;5082836;28;20078;-58
2022/08/10 08:18:30;;;;;;;3.42;1.90;;;25.30;99.90;;;;;;5066187;28;20614;-58
2022/08/10 08:20:57;;;;;;;3.50;1.70;;;25.40;99.90;;;;;;5066139;28;20052;-58
2022/08/10 08:23:25;;;;;;;6.55;1.90;;;25.50;99.90;;;;;;5081703;28;20055;-58
2022/08/10 08:25:51;;;;;;;5.35;1.77;;;25.50;99.90;;;;;;5082317;28;20127;-58
2022/08/10 08:28:17;;;;;;;4.03;1.90;;;25.50;99.90;;;;;;5066059;28;20123;-56
2022/08/10 08:30:45;;;;;;;4.40;1.73;;;25.70;99.90;;;;;;5066439;28;20059;-57
2022/08/10 08:33:12;;;;;;;3.83;1.70;;;25.60;99.90;;;;;;5082350;28;20066;-58
2022/08/10 08:35:39;;;;;;;4.93;1.60;;;25.50;99.90;;;;;;5065503;28;20049;-58
2022/08/10 08:38:05;;;;;;;5.15;1.80;;;25.40;99.90;;;;;;5066757;28;20111;-58
2022/08/10 08:40:38;;;;;;;4.15;1.88;;;25.30;99.90;;;;;;5066449;28;20127;-58
2022/08/10 08:43:12;;;;;;;4.75;1.90;;;25.20;99.90;;;;;;5066648;28;20111;-57
2022/08/10 08:46:09;;;;;;;4.50;1.90;;;25.50;99.90;;;;;;5066390;28;20056;-58
2022/08/10 08:48:42;;;;;;;4.78;1.67;;;25.40;99.90;;;;;;5066311;28;20053;-59
2022/08/10 08:51:53;;;;;;;5.35;1.60;;;25.50;99.90;;;;;;5066335;28;20040;-58
2022/08/10 08:54:22;;;;;;;3.72;1.85;;;25.70;99.90;;;;;;5059857;28;20048;-58
2022/08/10 08:57:03;;;;;;;3.78;1.70;;;25.70;99.90;;;;;;5066209;28;20409;-57
2022/08/10 08:59:50;;;;;;;5.63;1.90;;;25.50;99.90;;;;;;5066065;28;20048;-58
2022/08/10 09:02:46;;;;;;;5.53;1.83;;;25.80;99.90;;;;;;5065898;28;20048;-58
2022/08/10 09:05:49;;;;;;;5.18;1.70;;;26.10;99.90;;;;;;5065276;28;20041;-58
2022/08/10 09:08:39;;;;;;;4.05;1.70;;;26.00;99.90;;;;;;5074783;28;20121;-58
2022/08/10 09:11:35;;;;;;;2.47;1.42;;;26.40;99.90;;;;;;5065726;28;20048;-58
2022/08/10 09:14:10;;;;;;;4.60;1.95;;;26.60;99.90;;;;;;5097271;28;20055;-57
2022/08/10 09:16:50;;;;;;;4.32;1.60;;;26.70;99.90;;;;;;5085867;28;20040;-58
2022/08/10 09:19:31;;;;;;;3.15;1.55;;;26.40;99.90;;;;;;5081748;28;20062;-58
2022/08/10 09:22:09;;;;;;;4.25;1.27;;;26.70;99.90;;;;;;5085332;28;20058;-58
2022/08/10 09:25:17;;;;;;;6.40;1.35;;;27.00;99.90;;;;;;5085863;28;20131;-58
2022/08/10 09:27:45;;;;;;;2.85;1.40;;;27.20;99.90;;;;;;5085646;28;20039;-58
2022/08/10 09:30:15;;;;;;;2.90;1.45;;;27.10;99.90;;;;;;5085234;28;20048;-58
2022/08/10 09:32:56;;;;;;;4.28;1.60;;;27.00;99.90;;;;;;5083164;28;20048;-58
2022/08/10 09:35:51;;;;;;;3.65;1.52;;;27.20;99.90;;;;;;5083817;28;20063;-58
2022/08/10 09:38:27;;;;;;;;;;;27.30;99.90;;;;;;5085187;28;20405;-59
2022/08/10 09:41:18;;;;;;;5.72;1.50;;;27.20;99.90;;;;;;5085229;28;19962;-58
2022/08/10 09:44:11;;;;;;;5.25;1.40;;;27.30;99.90;;;;;;5084028;28;20056;-58
2022/08/10 09:47:25;;;;;;;2.10;1.40;;;27.70;99.90;;;;;;5084950;28;20052;-59
2022/08/10 09:50:43;;;;;;;4.38;1.58;;;28.00;99.90;;;;;;5083990;28;20055;-58
2022/08/10 09:53:33;;;;;;;2.53;1.70;;;28.20;99.90;;;;;;5083330;28;20330;-59
2022/08/10 09:56:22;;;;;;;3.95;1.60;;;27.70;99.90;;;;;;5084817;28;20048;-58
2022/08/10 09:59:02;;;;;;;3.05;1.38;;;28.20;99.90;;;;;;5084874;28;20097;-58
2022/08/10 10:01:50;;;;;;;2.53;1.42;;;28.00;99.90;;;;;;5084241;28;20044;-58
2022/08/10 10:04:30;;;;;;;4.70;1.50;;;27.70;99.90;;;;;;5084198;28;20529;-58
2022/08/10 10:07:04;;;;;;;17.70;1.77;;;28.20;99.90;;;;;;5077951;28;20040;-57
2022/08/10 10:09:44;;;;;;;4.78;1.63;;;28.40;99.90;;;;;;5066640;28;20080;-58
2022/08/10 10:12:30;;;;;;;3.03;1.27;;;28.40;99.90;;;;;;5064253;28;20447;-59
2022/08/10 10:15:21;;;;;;;5.35;1.80;;;28.80;99.90;;;;;;5064281;28;20044;-58
2022/08/10 10:17:53;;;;;;;4.15;1.70;;;28.70;99.90;;;;;;5063717;28;20127;-58
2022/08/10 10:20:31;;;;;;;2.80;1.38;;;29.20;99.90;;;;;;5062813;28;20532;-58
2022/08/10 10:23:33;;;;;;;3.40;1.52;;;29.20;99.90;;;;;;5063908;28;20044;-58
2022/08/10 10:26:23;;;;;;;3.53;1.50;;;29.50;99.90;;;;;;5063652;28;20044;-58
2022/08/10 10:29:09;;;;;;;3.42;1.35;;;28.90;99.90;;;;;;5063471;28;20086;-58
2022/08/10 10:31:59;;;;;;;6.50;1.42;;;29.10;99.90;;;;;;5079712;28;20059;-58
2022/08/10 10:35:18;;;;;;;4.78;1.63;;;29.10;99.90;;;;;;5063102;28;20044;-58
2022/08/10 10:37:46;;;;;;;2.80;1.40;;;29.50;99.90;;;;;;5060629;28;20044;-58
2022/08/10 10:40:14;;;;;;;2.42;1.48;;;29.60;99.90;;;;;;5063242;28;20194;-59
2022/08/10 10:42:48;;;;;;;3.90;1.35;;;29.60;99.90;;;;;;5079259;28;20052;-59
2022/08/10 10:45:30;;;;;;;4.43;1.40;;;29.70;99.90;;;;;;5062994;28;20054;-58
2022/08/10 10:48:14;;;;;;;2.05;1.27;;;29.70;99.90;;;;;;5063788;28;20083;-59
2022/08/10 10:50:48;;;;;;;4.68;1.48;;;29.70;99.90;;;;;;5078747;28;20040;-58
2022/08/10 10:53:43;;;;;;;;;;;29.80;99.90;;;;;;5064286;28;20155;-58
2022/08/10 10:56:42;;;;;;;4.78;1.40;;;29.70;99.90;;;;;;5078011;28;20394;-59
2022/08/10 10:59:36;;;;;;;2.47;1.30;;;29.40;99.90;;;;;;5063369;28;20395;-58
2022/08/10 11:02:17;;;;;;;2.75;1.15;;;29.30;99.90;;;;;;5063667;28;20505;-58
2022/08/10 11:05:04;;;;;;;4.32;1.52;;;29.30;99.90;;;;;;5062638;28;20044;-58
2022/08/10 11:07:52;;;;;;;2.38;1.20;;;29.80;99.90;;;;;;5090225;28;20127;-59
2022/08/10 11:10:26;;;;;;;4.80;1.40;;;30.00;99.90;;;;;;5063271;28;20044;-59
2022/08/10 11:13:21;;;;;;;1.92;1.20;;;30.10;99.90;;;;;;5063512;28;20040;-59
2022/08/10 11:16:23;;;;;;;3.58;1.63;;;29.40;99.90;;;;;;5063423;28;20037;-59
2022/08/10 11:18:53;;;;;;;2.75;1.40;;;29.50;99.90;;;;;;5062349;28;20066;-58
2022/08/10 11:21:43;;;;;;;5.78;1.40;;;29.00;99.90;;;;;;5063055;28;20052;-59
2022/08/10 11:24:30;;;;;;;3.20;1.35;;;29.50;99.90;;;;;;5062865;28;20045;-59
2022/08/10 11:27:04;;;;;;;3.35;1.30;;;29.20;99.90;;;;;;5062935;28;20170;-59
2022/08/10 11:29:56;;;;;;;4.43;1.60;;;29.40;99.90;;;;;;5062959;28;20056;-59
2022/08/10 11:32:35;;;;;;;5.80;1.35;;;29.40;99.90;;;;;;5078189;28;20090;-58
2022/08/10 11:35:26;;;;;;;2.10;1.40;;;29.70;99.90;;;;;;5063008;28;20102;-58
2022/08/10 11:38:14;;;;;;;2.20;1.20;;;29.90;99.90;;;;;;5066752;28;20044;-58
2022/08/10 11:40:59;;;;;;;2.08;1.33;;;30.10;99.90;;;;;;5066918;28;20119;-60
2022/08/10 11:43:28;;;;;;;3.90;1.40;;;30.00;99.90;;;;;;5066373;28;20055;-58
2022/08/10 11:46:25;;;;;;;3.13;1.13;;;29.80;99.90;;;;;;5082456;28;20499;-59
2022/08/10 11:49:12;;;;;;;3.75;1.35;;;30.10;99.90;;;;;;5065714;28;20051;-59
2022/08/10 11:51:46;;;;;;;5.03;1.30;;;29.90;99.90;;;;;;5066891;28;20487;-59
2022/08/10 11:54:37;;;;;;;3.63;1.02;;;29.50;99.90;;;;;;5066748;28;20449;-58
2022/08/10 11:57:03;;;;;;;2.67;0.93;;;29.80;99.90;;;;;;5067325;28;20040;-58
2022/08/10 12:02:20;;;;;;;2.63;1.17;;;29.80;99.90;;;;;;5066765;28;20059;-58
2022/08/10 12:04:51;;;;;;;2.58;1.13;;;30.00;99.90;;;;;;5066187;28;20043;-58
2022/08/10 12:07:20;;;;;;;2.33;0.90;;;30.10;99.90;;;;;;5076946;28;20124;-60
2022/08/10 12:09:47;;;;;;;1.95;1.10;;;30.00;99.90;;;;;;5066375;28;20048;-58
2022/08/10 12:12:15;;;;;;;1.38;1.00;;;29.70;99.90;;;;;;5066342;28;20562;-59
2022/08/10 12:15:01;;;;;;;2.20;1.30;;;29.60;99.90;;;;;;5066383;28;20487;-61
2022/08/10 12:17:48;;;;;;;1.95;1.40;;;30.10;99.90;;;;;;5066294;28;20385;-58
2022/08/10 12:20:23;;;;;;;3.53;1.50;;;30.00;99.90;;;;;;5065521;28;20570;-58
2022/08/10 12:23:50;;;;;;;3.80;1.15;;;30.10;99.90;;;;;;5066105;28;20048;-58
2022/08/10 12:26:22;;;;;;;2.47;1.10;;;30.10;99.90;;;;;;5063021;28;20124;-59
2022/08/10 12:29:01;;;;;;;3.30;1.20;;;30.00;99.90;;;;;;5063118;28;20048;-58
2022/08/10 12:31:45;;;;;;;3.08;0.98;;;30.50;99.90;;;;;;5064510;28;20067;-58
2022/08/10 12:34:35;;;;;;;3.97;1.25;;;30.60;99.90;;;;;;5065376;28;20091;-59
2022/08/10 12:37:22;;;;;;;4.07;1.30;;;30.40;99.90;;;;;;5065587;28;20051;-58
2022/08/10 12:40:14;;;;;;;2.33;1.27;;;30.60;99.90;;;;;;5066034;28;20123;-59
2022/08/10 12:43:13;;;;;;;1.85;0.80;;;30.50;99.90;;;;;;5066032;28;20048;-58
2022/08/10 12:45:53;;;;;;;2.08;1.13;;;30.00;99.90;;;;;;5065992;28;20084;-58
2022/08/10 12:49:09;;;;;;;3.70;1.10;;;29.90;99.90;;;;;;5062986;28;20143;-59
2022/08/10 12:51:40;;;;;;;3.78;1.30;;;30.10;99.90;;;;;;5028402;28;20157;-59
2022/08/10 12:54:16;;;;;;;2.05;1.15;;;30.30;99.90;;;;;;5066490;28;20045;-58
2022/08/10 12:56:51;;;;;;;2.10;1.17;;;30.20;99.90;;;;;;5065192;28;20049;-59
2022/08/10 12:59:19;;;;;;;5.28;1.05;;;30.00;99.90;;;;;;5065512;28;20127;-59
2022/08/10 13:01:51;;;;;;;1.92;1.00;;;30.20;99.90;;;;;;5081349;28;20376;-58
2022/08/10 13:04:28;;;;;;;3.90;1.20;;;30.00;99.90;;;;;;5068036;28;20040;-59
2022/08/10 13:06:57;;;;;;;3.55;1.10;;;30.10;99.90;;;;;;5071508;28;20540;-58
2022/08/10 13:09:24;;;;;;;3.05;1.10;;;30.30;99.90;;;;;;5072027;28;20051;-59
2022/08/10 13:12:03;;;;;;;3.85;1.10;;;30.20;99.90;;;;;;5071839;28;20040;-58
2022/08/10 13:14:31;;;;;;;2.90;1.30;;;30.10;99.90;;;;;;5071614;28;20054;-59
2022/08/10 13:16:58;;;;;;;3.22;1.30;;;30.10;99.90;;;;;;5071801;28;20045;-58
2022/08/10 13:19:27;;;;;;;4.97;1.30;;;30.10;99.90;;;;;;5070188;28;20584;-59
2022/08/10 13:21:55;;;;;;;4.70;1.42;;;30.00;99.90;;;;;;5071747;28;20047;-58
2022/08/10 13:24:28;;;;;;;2.70;1.20;;;30.20;99.90;;;;;;5071226;28;20138;-59